createdAt,value
2019-05-07T00:01:55.168Z,8.30
2019-05-07T00:04:22.458Z,8.30
2019-05-07T00:06:52.607Z,8.30
2019-05-07T00:09:18.431Z,8.40
2019-05-07T00:11:45.003Z,8.40
2019-05-07T00:14:12.571Z,8.40
2019-05-07T00:16:42.028Z,8.40
2019-05-07T00:19:07.673Z,8.40
2019-05-07T00:21:33.806Z,8.40
2019-05-07T00:24:02.142Z,8.40
2019-05-07T00:26:28.094Z,8.40
2019-05-07T00:28:54.466Z,8.40
2019-05-07T00:31:23.074Z,8.40
2019-05-07T00:33:49.366Z,8.30
2019-05-07T00:36:17.623Z,8.30
2019-05-07T00:39:02.862Z,8.30
2019-05-07T00:41:42.689Z,8.30
2019-05-07T00:44:10.336Z,8.20
2019-05-07T00:46:36.483Z,8.20
2019-05-07T00:49:02.627Z,8.20
2019-05-07T00:51:30.279Z,8.20
2019-05-07T00:53:57.031Z,8.10
2019-05-07T00:56:23.172Z,8.00
2019-05-07T00:58:49.635Z,8.00
2019-05-07T01:01:16.060Z,8.00
2019-05-07T01:03:42.558Z,8.00
2019-05-07T01:06:08.800Z,8.00
2019-05-07T01:08:35.234Z,7.90
2019-05-07T01:11:02.274Z,8.00
2019-05-07T01:13:28.519Z,7.90
2019-05-07T01:15:54.687Z,7.90
2019-05-07T01:18:23.349Z,7.90
2019-05-07T01:20:50.102Z,7.90
2019-05-07T01:23:16.527Z,7.90
2019-05-07T01:25:43.187Z,7.90
2019-05-07T01:28:09.699Z,7.80
2019-05-07T01:30:35.878Z,7.80
2019-05-07T01:33:07.199Z,7.80
2019-05-07T01:35:44.370Z,7.60
2019-05-07T01:38:12.338Z,7.70
2019-05-07T01:40:38.675Z,7.70
2019-05-07T01:43:05.094Z,7.60
2019-05-07T01:45:43.114Z,7.60
2019-05-07T01:47:59.615Z,7.50
2019-05-07T01:50:26.036Z,7.50
2019-05-07T01:52:52.393Z,7.40
2019-05-07T01:55:18.627Z,7.40
2019-05-07T01:57:45.031Z,7.40
2019-05-07T02:00:13.097Z,7.30
2019-05-07T02:02:52.023Z,7.30
2019-05-07T02:05:20.279Z,7.20
2019-05-07T02:07:48.693Z,7.10
2019-05-07T02:10:17.412Z,7.00
2019-05-07T02:12:43.623Z,7.00
2019-05-07T02:15:11.921Z,6.90
2019-05-07T02:17:38.416Z,6.80
2019-05-07T02:20:05.178Z,6.70
2019-05-07T02:22:32.029Z,6.70
2019-05-07T02:24:58.424Z,6.70
2019-05-07T02:27:24.878Z,6.70
2019-05-07T02:29:52.933Z,6.70
2019-05-07T02:32:19.266Z,6.70
2019-05-07T02:34:45.426Z,6.70
2019-05-07T02:37:13.467Z,6.70
2019-05-07T02:39:44.271Z,6.60
2019-05-07T02:42:09.578Z,6.60
2019-05-07T02:44:37.636Z,6.60
2019-05-07T02:47:05.683Z,6.60
2019-05-07T02:49:33.761Z,6.60
2019-05-07T02:52:18.488Z,6.60
2019-05-07T02:54:46.546Z,6.60
2019-05-07T02:57:16.618Z,6.60
2019-05-07T02:59:43.880Z,6.70
2019-05-07T03:02:08.779Z,6.70
2019-05-07T03:04:35.432Z,6.70
2019-05-07T03:07:03.896Z,6.80
2019-05-07T03:09:32.665Z,6.70
2019-05-07T03:11:58.283Z,6.70
2019-05-07T03:14:25.445Z,6.70
2019-05-07T03:16:53.705Z,6.70
2019-05-07T03:19:19.682Z,6.80
2019-05-07T03:21:55.528Z,6.80
2019-05-07T03:24:27.829Z,6.70
2019-05-07T03:26:54.259Z,6.70
2019-05-07T03:29:23.949Z,6.70
2019-05-07T03:31:56.252Z,6.80
2019-05-07T03:34:39.179Z,6.80
2019-05-07T03:37:07.335Z,6.80
2019-05-07T03:39:33.932Z,6.90
2019-05-07T03:42:03.113Z,6.90
2019-05-07T03:44:46.477Z,6.90
2019-05-07T03:47:17.314Z,7.00
2019-05-07T03:49:43.557Z,6.90
2019-05-07T03:52:09.802Z,7.00
2019-05-07T03:54:36.006Z,7.00
2019-05-07T03:57:10.290Z,7.00
2019-05-07T03:59:30.202Z,6.90
2019-05-07T04:01:56.356Z,7.00
2019-05-07T04:04:23.160Z,7.00
2019-05-07T04:06:49.542Z,7.00
2019-05-07T04:09:16.247Z,7.10
2019-05-07T04:11:43.296Z,7.10
2019-05-07T04:14:09.745Z,7.10
2019-05-07T04:16:36.166Z,7.00
2019-05-07T04:19:03.853Z,6.90
2019-05-07T04:21:30.353Z,7.00
2019-05-07T04:24:13.262Z,7.10
2019-05-07T04:26:47.519Z,7.20
2019-05-07T04:29:19.337Z,7.30
2019-05-07T04:31:45.607Z,7.30
2019-05-07T04:34:13.735Z,7.30
2019-05-07T04:36:43.704Z,7.30
2019-05-07T04:39:09.921Z,7.30
2019-05-07T04:41:36.418Z,7.30
2019-05-07T04:44:03.874Z,7.30
2019-05-07T04:46:33.213Z,7.30
2019-05-07T04:48:58.584Z,7.30
2019-05-07T04:51:26.764Z,7.30
2019-05-07T04:53:54.202Z,7.30
2019-05-07T04:56:23.575Z,7.30
2019-05-07T04:58:48.711Z,7.30
2019-05-07T05:01:16.941Z,7.40
2019-05-07T05:03:43.784Z,7.40
2019-05-07T05:06:13.348Z,7.50
2019-05-07T05:08:39.454Z,7.60
2019-05-07T05:11:05.602Z,7.60
2019-05-07T05:13:33.090Z,7.80
2019-05-07T05:16:02.058Z,7.80
2019-05-07T05:18:28.425Z,7.90
2019-05-07T05:21:15.167Z,7.90
2019-05-07T05:23:43.212Z,8.10
2019-05-07T05:26:09.385Z,8.20
2019-05-07T05:28:35.534Z,8.30
2019-05-07T05:31:06.331Z,8.30
2019-05-07T05:33:32.607Z,8.30
2019-05-07T05:35:58.767Z,8.40
2019-05-07T05:38:24.923Z,8.40
2019-05-07T05:40:52.115Z,8.60
2019-05-07T05:43:37.038Z,8.90
2019-05-07T05:46:05.290Z,9.10
2019-05-07T05:48:33.391Z,9.30
2019-05-07T05:51:02.656Z,9.60
2019-05-07T05:53:33.558Z,9.80
2019-05-07T05:56:02.378Z,10.00
2019-05-07T05:58:48.572Z,9.90
2019-05-07T06:01:28.502Z,10.00
2019-05-07T06:04:03.039Z,9.90
2019-05-07T06:06:34.117Z,10.20
2019-05-07T06:09:12.312Z,10.10
2019-05-07T06:11:42.845Z,10.30
2019-05-07T06:14:25.749Z,10.50
2019-05-07T06:16:56.723Z,10.60
2019-05-07T06:19:24.842Z,10.80
2019-05-07T06:21:52.983Z,11.00
2019-05-07T06:24:37.480Z,11.10
2019-05-07T06:27:04.636Z,11.00
2019-05-07T06:29:32.852Z,11.20
2019-05-07T06:32:02.667Z,11.20
2019-05-07T06:34:29.309Z,11.40
2019-05-07T06:36:55.547Z,11.30
2019-05-07T06:39:42.049Z,11.30
2019-05-07T06:42:26.949Z,11.30
2019-05-07T06:45:02.900Z,11.30
2019-05-07T06:47:31.779Z,11.70
2019-05-07T06:49:57.870Z,11.30
2019-05-07T06:52:24.026Z,11.20
2019-05-07T06:54:52.343Z,10.90
2019-05-07T06:57:18.595Z,10.90
2019-05-07T06:59:46.646Z,11.10
2019-05-07T07:02:30.146Z,11.10
2019-05-07T07:05:02.844Z,11.30
2019-05-07T07:07:43.355Z,11.20
2019-05-07T07:10:12.110Z,11.20
2019-05-07T07:12:38.492Z,11.10
2019-05-07T07:15:05.938Z,11.40
2019-05-07T07:17:32.730Z,11.90
2019-05-07T07:19:59.261Z,12.10
2019-05-07T07:22:25.416Z,12.30
2019-05-07T07:24:53.122Z,12.60
2019-05-07T07:27:19.406Z,12.60
2019-05-07T07:29:49.987Z,12.70
2019-05-07T07:32:18.044Z,12.60
2019-05-07T07:34:46.414Z,12.60
2019-05-07T07:37:26.529Z,12.40
2019-05-07T07:40:12.876Z,12.50
2019-05-07T07:42:39.483Z,12.70
2019-05-07T07:45:16.203Z,12.70
2019-05-07T07:47:43.447Z,12.50
2019-05-07T07:50:09.903Z,12.30
2019-05-07T07:52:36.280Z,12.10
2019-05-07T07:55:04.147Z,12.00
2019-05-07T07:57:44.064Z,12.00
2019-05-07T08:00:15.104Z,12.20
2019-05-07T08:02:43.148Z,11.90
2019-05-07T08:05:09.712Z,12.10
2019-05-07T08:07:35.956Z,11.90
2019-05-07T08:10:03.706Z,12.00
2019-05-07T08:12:32.350Z,11.80
2019-05-07T08:15:13.464Z,11.90
2019-05-07T08:17:26.371Z,11.80
2019-05-07T08:19:52.539Z,11.60
2019-05-07T08:22:19.049Z,11.40
2019-05-07T08:24:45.198Z,11.20
2019-05-07T08:27:14.745Z,11.10
2019-05-07T08:29:39.490Z,11.20
2019-05-07T08:32:23.959Z,11.20
2019-05-07T08:34:52.446Z,11.10
2019-05-07T08:37:18.611Z,10.90
2019-05-07T08:39:44.764Z,11.00
2019-05-07T08:42:12.278Z,11.00
2019-05-07T08:44:40.467Z,11.10
2019-05-07T08:47:14.580Z,10.90
2019-05-07T08:49:43.344Z,11.10
2019-05-07T08:52:12.046Z,11.20
2019-05-07T08:54:38.323Z,11.30
2019-05-07T08:57:04.691Z,11.20
2019-05-07T08:59:32.176Z,11.20
2019-05-07T09:02:02.656Z,11.40
2019-05-07T09:04:28.666Z,11.70
2019-05-07T09:06:55.035Z,11.90
2019-05-07T09:09:22.198Z,12.10
2019-05-07T09:11:48.666Z,12.20
2019-05-07T09:14:14.800Z,12.80
2019-05-07T09:16:42.712Z,13.00
2019-05-07T09:19:09.112Z,12.70
2019-05-07T09:21:35.272Z,13.00
2019-05-07T09:24:05.374Z,12.60
2019-05-07T09:26:36.705Z,12.70
2019-05-07T09:29:22.246Z,12.50
2019-05-07T09:31:52.546Z,12.80
2019-05-07T09:34:22.246Z,13.40
2019-05-07T09:36:52.790Z,13.90
2019-05-07T09:39:19.256Z,14.00
2019-05-07T09:41:45.449Z,13.60
2019-05-07T09:44:12.050Z,14.00
2019-05-07T09:46:38.486Z,14.30
2019-05-07T09:49:04.624Z,13.50
2019-05-07T09:51:32.301Z,13.50
2019-05-07T09:53:58.582Z,13.20
2019-05-07T09:56:24.717Z,13.10
2019-05-07T09:58:52.950Z,12.80
2019-05-07T10:01:19.405Z,12.90
2019-05-07T10:03:46.037Z,13.10
2019-05-07T10:06:12.489Z,13.00
2019-05-07T10:08:38.739Z,13.50
2019-05-07T10:11:07.776Z,13.80
2019-05-07T10:13:35.916Z,14.50
2019-05-07T10:16:04.293Z,15.30
2019-05-07T10:18:32.074Z,14.50
2019-05-07T10:20:58.467Z,14.20
2019-05-07T10:23:24.610Z,14.40
2019-05-07T10:25:52.180Z,13.90
2019-05-07T10:28:18.318Z,13.60
2019-05-07T10:30:44.499Z,13.50
2019-05-07T10:33:12.385Z,13.50
2019-05-07T10:35:38.896Z,12.90
2019-05-07T10:38:05.056Z,12.90
2019-05-07T10:40:32.775Z,12.80
2019-05-07T10:42:59.254Z,12.60
2019-05-07T10:45:27.534Z,12.70
2019-05-07T10:47:55.626Z,13.10
2019-05-07T10:50:35.423Z,12.90
2019-05-07T10:52:52.794Z,12.60
2019-05-07T10:55:19.429Z,12.90
2019-05-07T10:57:45.864Z,12.90
2019-05-07T11:00:14.691Z,12.60
2019-05-07T11:02:42.582Z,12.60
2019-05-07T11:05:12.777Z,12.80
2019-05-07T11:07:38.449Z,12.70
2019-05-07T11:10:08.402Z,13.20
2019-05-07T11:12:34.583Z,13.50
2019-05-07T11:15:02.187Z,13.20
2019-05-07T11:17:46.800Z,13.40
2019-05-07T11:20:15.213Z,13.10
2019-05-07T11:22:42.881Z,13.40
2019-05-07T11:25:09.295Z,13.50
2019-05-07T11:27:35.669Z,13.30
2019-05-07T11:30:06.514Z,13.50
2019-05-07T11:32:32.683Z,13.60
2019-05-07T11:34:58.840Z,13.60
2019-05-07T11:37:26.033Z,13.90
2019-05-07T11:39:52.469Z,14.10
2019-05-07T11:42:21.997Z,14.20
2019-05-07T11:44:49.103Z,14.20
2019-05-07T11:47:26.224Z,14.30
2019-05-07T11:50:14.801Z,14.10
2019-05-07T11:52:43.775Z,14.10
2019-05-07T11:55:12.057Z,14.30
2019-05-07T11:57:38.295Z,14.10
2019-05-07T12:00:05.548Z,14.60
2019-05-07T12:02:32.138Z,14.10
2019-05-07T12:04:58.387Z,14.50
2019-05-07T12:07:24.639Z,14.50
2019-05-07T12:09:52.631Z,14.30
2019-05-07T12:12:18.974Z,14.30
2019-05-07T12:14:45.131Z,14.50
2019-05-07T12:17:11.949Z,14.40
2019-05-07T12:19:38.260Z,14.70
2019-05-07T12:22:05.557Z,14.50
2019-05-07T12:24:32.807Z,14.60
2019-05-07T12:26:59.268Z,14.40
2019-05-07T12:29:26.699Z,14.60
2019-05-07T12:32:09.646Z,14.50
2019-05-07T12:34:37.707Z,13.90
2019-05-07T12:37:03.915Z,14.50
2019-05-07T12:39:31.891Z,14.60
2019-05-07T12:41:58.231Z,14.60
2019-05-07T12:44:24.371Z,14.70
2019-05-07T12:46:52.386Z,14.20
2019-05-07T12:49:18.594Z,14.40
2019-05-07T12:51:46.923Z,14.00
2019-05-07T12:54:14.974Z,14.10
2019-05-07T12:56:42.645Z,14.30
2019-05-07T12:59:08.902Z,14.50
2019-05-07T13:01:53.150Z,14.80
2019-05-07T13:04:23.960Z,14.80
2019-05-07T13:07:04.113Z,15.20
2019-05-07T13:09:32.390Z,15.10
2019-05-07T13:11:58.341Z,14.40
2019-05-07T13:14:24.539Z,14.80
2019-05-07T13:16:52.309Z,14.60
2019-05-07T13:19:18.598Z,14.90
2019-05-07T13:21:49.986Z,14.60
2019-05-07T13:24:14.973Z,15.00
2019-05-07T13:26:42.755Z,15.00
2019-05-07T13:29:09.044Z,15.10
2019-05-07T13:31:35.583Z,14.90
2019-05-07T13:34:02.945Z,15.20
2019-05-07T13:36:32.439Z,14.90
2019-05-07T13:39:02.443Z,14.70
2019-05-07T13:41:41.308Z,14.60
2019-05-07T13:44:12.788Z,14.70
2019-05-07T13:46:42.097Z,15.00
2019-05-07T13:49:09.378Z,15.00
2019-05-07T13:51:35.961Z,15.20
2019-05-07T13:54:02.812Z,15.30
2019-05-07T13:56:29.053Z,15.50
2019-05-07T13:58:55.315Z,15.50
2019-05-07T14:01:24.509Z,15.30
2019-05-07T14:03:50.983Z,15.30
2019-05-07T14:06:35.731Z,15.30
2019-05-07T14:09:06.323Z,15.10
2019-05-07T14:11:35.004Z,15.30
2019-05-07T14:14:01.799Z,15.20
2019-05-07T14:16:28.200Z,15.30
2019-05-07T14:18:54.460Z,14.90
2019-05-07T14:21:21.958Z,14.90
2019-05-07T14:23:48.227Z,15.10
2019-05-07T14:26:14.367Z,15.20
2019-05-07T14:28:42.310Z,15.20
2019-05-07T14:31:08.605Z,15.20
2019-05-07T14:33:36.958Z,15.10
2019-05-07T14:36:14.443Z,15.10
2019-05-07T14:38:48.528Z,15.10
2019-05-07T14:41:14.824Z,15.30
2019-05-07T14:43:47.283Z,14.80
2019-05-07T14:46:13.443Z,15.10
2019-05-07T14:48:43.515Z,15.20
2019-05-07T14:51:08.223Z,15.40
2019-05-07T14:53:34.394Z,15.20
2019-05-07T14:56:01.345Z,14.70
2019-05-07T14:58:27.789Z,14.60
2019-05-07T15:00:53.930Z,14.70
2019-05-07T15:03:20.420Z,14.50
2019-05-07T15:05:46.862Z,14.50
2019-05-07T15:08:14.438Z,14.50
2019-05-07T15:10:41.866Z,14.30
2019-05-07T15:13:08.233Z,14.40
2019-05-07T15:15:36.152Z,14.50
2019-05-07T15:18:04.673Z,14.80
2019-05-07T15:20:32.868Z,14.90
2019-05-07T15:23:02.711Z,14.90
2019-05-07T15:25:28.877Z,14.90
2019-05-07T15:27:55.156Z,14.80
2019-05-07T15:30:22.103Z,14.60
2019-05-07T15:32:48.256Z,14.80
2019-05-07T15:35:14.524Z,14.20
2019-05-07T15:37:42.744Z,14.20
2019-05-07T15:40:09.387Z,14.80
2019-05-07T15:42:35.622Z,14.80
2019-05-07T15:45:02.489Z,14.50
2019-05-07T15:47:31.735Z,14.60
2019-05-07T15:49:57.971Z,14.90
2019-05-07T15:52:29.275Z,14.60
2019-05-07T15:54:55.484Z,14.70
2019-05-07T15:57:23.506Z,14.60
2019-05-07T15:59:52.412Z,14.60
2019-05-07T16:02:27.208Z,14.60
2019-05-07T16:04:53.382Z,14.70
2019-05-07T16:07:19.613Z,14.60
2019-05-07T16:09:45.979Z,14.90
2019-05-07T16:12:15.989Z,14.90
2019-05-07T16:14:42.490Z,14.90
2019-05-07T16:17:10.522Z,14.70
2019-05-07T16:19:36.673Z,14.70
2019-05-07T16:22:05.097Z,14.80
2019-05-07T16:24:31.985Z,14.60
2019-05-07T16:26:58.167Z,14.80
2019-05-07T16:29:24.680Z,14.70
2019-05-07T16:31:52.141Z,14.50
2019-05-07T16:34:18.379Z,14.50
2019-05-07T16:36:44.569Z,14.40
2019-05-07T16:39:12.056Z,14.30
2019-05-07T16:41:38.469Z,14.10
2019-05-07T16:44:04.867Z,14.00
2019-05-07T16:46:31.072Z,14.20
2019-05-07T16:48:57.581Z,14.30
2019-05-07T16:51:24.000Z,14.10
2019-05-07T16:53:52.029Z,14.00
2019-05-07T16:56:18.528Z,14.10
2019-05-07T16:58:52.316Z,14.20
2019-05-07T17:01:18.607Z,14.30
2019-05-07T17:03:52.064Z,14.30
2019-05-07T17:06:18.585Z,14.20
2019-05-07T17:08:46.738Z,14.20
2019-05-07T17:11:12.895Z,14.00
2019-05-07T17:13:39.182Z,14.20
2019-05-07T17:16:06.070Z,14.20
2019-05-07T17:18:32.807Z,14.10
2019-05-07T17:20:59.087Z,13.90
2019-05-07T17:23:25.777Z,13.80
2019-05-07T17:25:52.610Z,13.90
2019-05-07T17:28:18.992Z,13.80
2019-05-07T17:30:45.204Z,13.80
2019-05-07T17:33:12.838Z,13.80
2019-05-07T17:35:39.203Z,13.80
2019-05-07T17:38:09.439Z,13.70
2019-05-07T17:40:33.458Z,13.70
2019-05-07T17:42:59.633Z,13.70
2019-05-07T17:45:25.785Z,13.70
2019-05-07T17:47:52.453Z,13.70
2019-05-07T17:50:22.672Z,13.60
2019-05-07T17:52:49.094Z,13.70
2019-05-07T17:55:16.603Z,13.60
2019-05-07T17:57:42.825Z,13.50
2019-05-07T18:00:09.552Z,13.30
2019-05-07T18:02:39.745Z,13.40
2019-05-07T18:05:06.083Z,13.30
2019-05-07T18:07:33.042Z,13.30
2019-05-07T18:09:59.235Z,13.30
2019-05-07T18:12:25.479Z,13.40
2019-05-07T18:14:52.775Z,13.30
2019-05-07T18:17:22.027Z,13.30
2019-05-07T18:19:50.237Z,13.30
2019-05-07T18:22:16.425Z,13.20
2019-05-07T18:24:42.869Z,13.30
2019-05-07T18:27:12.606Z,13.30
2019-05-07T18:29:38.928Z,13.10
2019-05-07T18:32:06.167Z,13.00
2019-05-07T18:34:32.389Z,13.00
2019-05-07T18:36:58.627Z,12.90
2019-05-07T18:39:24.824Z,12.90
2019-05-07T18:41:52.308Z,12.90
2019-05-07T18:44:19.006Z,12.90
2019-05-07T18:46:45.211Z,12.70
2019-05-07T18:49:12.835Z,12.70
2019-05-07T18:51:39.371Z,12.60
2019-05-07T18:54:05.547Z,12.60
2019-05-07T18:56:31.786Z,12.60
2019-05-07T18:58:58.277Z,12.50
2019-05-07T19:01:26.674Z,12.50
2019-05-07T19:03:53.416Z,12.40
2019-05-07T19:06:19.641Z,12.40
2019-05-07T19:08:46.395Z,12.30
2019-05-07T19:11:12.823Z,12.30
2019-05-07T19:13:41.779Z,12.30
2019-05-07T19:16:08.117Z,12.20
2019-05-07T19:18:34.265Z,12.10
2019-05-07T19:21:00.406Z,11.90
2019-05-07T19:23:26.616Z,11.90
2019-05-07T19:25:52.866Z,11.90
2019-05-07T19:28:19.339Z,11.80
2019-05-07T19:30:45.780Z,11.80
2019-05-07T19:33:12.381Z,11.70
2019-05-07T19:35:38.684Z,11.70
2019-05-07T19:38:05.068Z,11.60
2019-05-07T19:40:32.471Z,11.60
2019-05-07T19:42:59.208Z,11.60
2019-05-07T19:45:25.327Z,11.50
2019-05-07T19:47:52.360Z,11.50
2019-05-07T19:50:18.746Z,11.20
2019-05-07T19:52:44.928Z,11.20
2019-05-07T19:55:11.072Z,11.00
2019-05-07T19:57:42.646Z,11.10
2019-05-07T20:00:09.300Z,11.00
2019-05-07T20:02:39.495Z,10.90
2019-05-07T20:05:05.849Z,10.80
2019-05-07T20:07:32.388Z,10.80
2019-05-07T20:09:58.675Z,10.70
2019-05-07T20:12:24.857Z,10.60
2019-05-07T20:14:51.999Z,10.60
2019-05-07T20:17:18.395Z,10.70
2019-05-07T20:19:44.667Z,10.60
2019-05-07T20:22:12.791Z,10.50
2019-05-07T20:24:38.950Z,10.50
2019-05-07T20:27:05.102Z,10.50
2019-05-07T20:29:32.363Z,10.50
2019-05-07T20:31:58.723Z,10.60
2019-05-07T20:34:24.887Z,10.60
2019-05-07T20:36:51.825Z,10.70
2019-05-07T20:39:18.135Z,10.70
2019-05-07T20:41:44.367Z,10.70
2019-05-07T20:44:11.908Z,10.60
2019-05-07T20:46:38.304Z,10.60
2019-05-07T20:49:04.452Z,10.50
2019-05-07T20:51:32.534Z,10.40
2019-05-07T20:54:00.551Z,10.40
2019-05-07T20:56:28.632Z,10.30
2019-05-07T20:58:54.990Z,10.20
2019-05-07T21:01:22.054Z,10.30
2019-05-07T21:03:48.682Z,10.30
2019-05-07T21:06:14.833Z,10.30
2019-05-07T21:08:42.767Z,10.30
2019-05-07T21:11:11.719Z,10.20
2019-05-07T21:13:37.765Z,10.30
2019-05-07T21:16:03.937Z,10.30
2019-05-07T21:18:32.551Z,10.20
2019-05-07T21:20:58.118Z,10.10
2019-05-07T21:23:24.487Z,10.10
2019-05-07T21:25:52.711Z,10.10
2019-05-07T21:28:18.983Z,10.00
2019-05-07T21:30:45.648Z,10.00
2019-05-07T21:33:12.085Z,10.00
2019-05-07T21:35:38.355Z,9.80
2019-05-07T21:38:04.844Z,9.60
2019-05-07T21:40:32.079Z,9.50
2019-05-07T21:42:58.503Z,9.50
2019-05-07T21:45:26.109Z,9.60
2019-05-07T21:47:54.518Z,9.70
2019-05-07T21:50:21.893Z,9.70
2019-05-07T21:52:55.962Z,9.60
2019-05-07T21:55:24.103Z,9.60
2019-05-07T21:58:08.740Z,9.60
2019-05-07T22:00:43.044Z,9.40
2019-05-07T22:03:13.211Z,9.50
2019-05-07T22:05:44.074Z,9.50
2019-05-07T22:08:08.835Z,9.50
2019-05-07T22:10:35.014Z,9.60
2019-05-07T22:13:02.766Z,9.60
2019-05-07T22:15:29.255Z,9.60
2019-05-07T22:17:56.442Z,9.60
2019-05-07T22:20:22.597Z,9.60
2019-05-07T22:22:49.059Z,9.50
2019-05-07T22:25:15.262Z,9.50
2019-05-07T22:27:43.370Z,9.60
2019-05-07T22:30:12.518Z,9.50
2019-05-07T22:32:43.803Z,9.60
2019-05-07T22:35:29.380Z,9.50
2019-05-07T22:38:14.160Z,9.50
2019-05-07T22:40:43.391Z,9.60
2019-05-07T22:43:12.917Z,9.60
2019-05-07T22:45:39.173Z,9.60
2019-05-07T22:48:05.417Z,9.60
2019-05-07T22:50:33.144Z,9.50
2019-05-07T22:53:01.867Z,9.60
2019-05-07T22:55:27.959Z,9.50
2019-05-07T22:57:58.907Z,9.50
2019-05-07T23:00:36.205Z,9.60
2019-05-07T23:03:02.957Z,9.50
2019-05-07T23:05:29.566Z,9.50
2019-05-07T23:07:55.718Z,9.60
2019-05-07T23:10:22.560Z,9.60
2019-05-07T23:12:48.912Z,9.60
2019-05-07T23:15:15.080Z,9.60
2019-05-07T23:17:41.248Z,9.60
2019-05-07T23:20:07.694Z,9.70
2019-05-07T23:22:33.842Z,9.60
2019-05-07T23:24:59.995Z,9.60
2019-05-07T23:27:26.155Z,9.60
2019-05-07T23:29:52.989Z,9.60
2019-05-07T23:32:19.382Z,9.60
2019-05-07T23:34:45.496Z,9.70
2019-05-07T23:37:11.829Z,9.70
2019-05-07T23:39:48.979Z,9.70
2019-05-07T23:42:25.902Z,9.70
2019-05-07T23:44:52.428Z,9.70
2019-05-07T23:47:19.126Z,9.70
2019-05-07T23:49:45.266Z,9.70
2019-05-07T23:52:12.914Z,9.80
2019-05-07T23:54:39.271Z,9.80
2019-05-07T23:57:09.702Z,9.80
2019-05-07T23:59:34.126Z,9.80
